Time;durP1;ratioP1;P1;durP2;ratioP2;P2;SDS_P1;SDS_P2;PMS_P1;PMS_P2;Temp;Humidity;BMP_temperature;BMP_pressure;BME280_temperature;BME280_humidity;BME280_pressure;Samples;Min_cycle;Max_cycle;Signal;HPM_P1;HPM_P2
2023/12/29 00:02:06;;;;;;;;;;;6.50;99.90;;;;;;5080414;28;19984;-75
2023/12/29 00:04:32;;;;;;;;;;;6.40;99.90;;;;;;5087342;28;19925;-76
2023/12/29 00:06:59;;;;;;;;;;;6.40;99.90;;;;;;5086081;28;19978;-76
2023/12/29 00:09:26;;;;;;;;;;;6.40;99.90;;;;;;5087517;28;19924;-76
2023/12/29 00:11:54;;;;;;;;;;;6.40;99.90;;;;;;5082910;28;19981;-76
2023/12/29 00:14:20;;;;;;;;;;;6.40;99.90;;;;;;5080469;28;20141;-76
2023/12/29 00:16:47;;;;;;;;;;;6.40;99.90;;;;;;5090186;28;19997;-76
2023/12/29 00:19:13;;;;;;;;;;;6.40;99.90;;;;;;5090192;28;19985;-76
2023/12/29 00:21:40;;;;;;;;;;;6.40;99.90;;;;;;5086488;28;19928;-76
2023/12/29 00:24:06;;;;;;;;;;;6.40;99.90;;;;;;5089561;28;19928;-76
2023/12/29 00:26:35;;;;;;;;;;;6.30;99.90;;;;;;5089202;28;19931;-76
2023/12/29 00:29:01;;;;;;;;;;;6.30;99.90;;;;;;5083659;28;21172;-74
2023/12/29 00:31:28;;;;;;;;;;;6.20;99.90;;;;;;5088425;28;19925;-75
2023/12/29 00:33:54;;;;;;;;;;;6.20;99.90;;;;;;5090785;28;19924;-75
2023/12/29 00:36:21;;;;;;;;;;;6.20;99.90;;;;;;5082140;28;19977;-74
2023/12/29 00:38:47;;;;;;;;;;;6.20;99.90;;;;;;5081104;28;19930;-74
2023/12/29 00:41:14;;;;;;;;;;;6.30;99.90;;;;;;5092236;28;20384;-74
2023/12/29 00:43:42;;;;;;;;;;;6.30;99.90;;;;;;5084359;28;19931;-74
2023/12/29 00:46:09;;;;;;;;;;;6.40;99.90;;;;;;5090168;28;19985;-74
2023/12/29 00:48:35;;;;;;;;;;;6.40;99.90;;;;;;5080472;28;19924;-74
2023/12/29 00:51:02;;;;;;;;;;;6.40;99.90;;;;;;5087932;28;19950;-74
2023/12/29 00:53:31;;;;;;;;;;;6.40;99.90;;;;;;5085047;28;19970;-75
2023/12/29 00:55:58;;;;;;;;;;;6.40;99.90;;;;;;5080607;28;19928;-74
2023/12/29 00:58:24;;;;;;;;;;;6.40;99.90;;;;;;5086444;28;19932;-75
2023/12/29 01:00:52;;;;;;;;;;;6.40;99.90;;;;;;5084038;28;19924;-74
2023/12/29 01:03:20;;;;;;;;;;;6.30;99.90;;;;;;5086423;28;20049;-75
2023/12/29 01:05:46;;;;;;;;;;;6.30;99.90;;;;;;5084722;28;19924;-74
2023/12/29 01:08:13;;;;;;;;;;;6.20;99.90;;;;;;5078178;28;19951;-74
2023/12/29 01:10:39;;;;;;;;;;;6.10;99.90;;;;;;5081315;28;19928;-75
2023/12/29 01:13:06;;;;;;;;;;;6.10;99.90;;;;;;5087779;28;20329;-74
2023/12/29 01:15:32;;;;;;;;;;;6.10;99.90;;;;;;5083606;28;19924;-74
2023/12/29 01:18:00;;;;;;;;;;;6.00;99.90;;;;;;5085671;28;19950;-74
2023/12/29 01:20:27;;;;;;;;;;;6.10;99.90;;;;;;5086673;28;19924;-74
2023/12/29 01:22:53;;;;;;;;;;;6.10;99.90;;;;;;5089899;28;19932;-74
2023/12/29 01:25:19;;;;;;;;;;;6.10;99.90;;;;;;5089946;28;19932;-74
2023/12/29 01:27:46;;;;;;;;;;;6.20;99.90;;;;;;5089223;28;19924;-75
2023/12/29 01:30:13;;;;;;;;;;;6.30;99.90;;;;;;5074391;28;20493;-74
2023/12/29 01:32:39;;;;;;;;;;;6.40;99.90;;;;;;5083349;28;19924;-74
2023/12/29 01:35:08;;;;;;;;;;;6.50;99.90;;;;;;5080374;28;19951;-74
2023/12/29 01:37:34;;;;;;;;;;;6.60;99.90;;;;;;5081778;28;19929;-74
2023/12/29 01:40:01;;;;;;;;;;;6.80;99.90;;;;;;5087307;28;20390;-74
2023/12/29 01:42:27;;;;;;;;;;;7.00;99.90;;;;;;5087946;28;19927;-75
2023/12/29 01:44:54;;;;;;;;;;;7.10;99.90;;;;;;5085780;28;19925;-75
2023/12/29 01:47:21;;;;;;;;;;;7.10;99.90;;;;;;5082808;28;19924;-74
2023/12/29 01:49:49;;;;;;;;;;;7.30;99.90;;;;;;5085033;28;19924;-74
2023/12/29 01:52:17;;;;;;;;;;;7.30;99.90;;;;;;5084892;28;19925;-74
2023/12/29 01:54:44;;;;;;;;;;;7.40;99.90;;;;;;5079685;28;19924;-75
2023/12/29 01:57:11;;;;;;;;;;;7.40;99.90;;;;;;5086434;28;20382;-74
2023/12/29 01:59:38;;;;;;;;;;;7.40;99.90;;;;;;5081794;28;20347;-76
2023/12/29 02:02:05;;;;;;;;;;;7.50;99.90;;;;;;5080567;28;19924;-74
2023/12/29 02:04:32;;;;;;;;;;;7.50;99.90;;;;;;5081488;28;19924;-74
2023/12/29 02:06:58;;;;;;;;;;;7.60;99.90;;;;;;5086981;28;19924;-75
2023/12/29 02:09:26;;;;;;;;;;;7.60;99.90;;;;;;5083744;28;19928;-78
2023/12/29 02:11:53;;;;;;;;;;;7.60;99.90;;;;;;5087438;28;19983;-75
2023/12/29 02:14:20;;;;;;;;;;;7.60;99.90;;;;;;5090112;28;19928;-75
2023/12/29 02:16:51;;;;;;;;;;;7.60;99.90;;;;;;5081856;28;19928;-75
2023/12/29 02:19:37;;;;;;;;;;;7.70;99.90;;;;;;5087597;28;19924;-74
2023/12/29 02:22:04;;;;;;;;;;;7.60;99.90;;;;;;5080462;28;19924;-75
2023/12/29 02:24:32;;;;;;;;;;;7.60;99.90;;;;;;5076598;28;19982;-74
2023/12/29 02:27:03;;;;;;;;;;;7.60;99.90;;;;;;5083628;28;20329;-74
2023/12/29 02:29:30;;;;;;;;;;;7.60;99.90;;;;;;5083896;28;19928;-74
2023/12/29 02:31:59;;;;;;;;;;;7.50;99.90;;;;;;5088057;28;20382;-74
2023/12/29 02:34:27;;;;;;;;;;;7.50;99.90;;;;;;5089365;28;20347;-74
2023/12/29 02:36:54;;;;;;;;;;;7.50;99.90;;;;;;5083124;28;19924;-74
2023/12/29 02:39:20;;;;;;;;;;;7.60;99.90;;;;;;5091165;28;20381;-75
2023/12/29 02:41:47;;;;;;;;;;;7.60;99.90;;;;;;5083509;28;19928;-74
2023/12/29 02:44:15;;;;;;;;;;;7.60;99.90;;;;;;5089982;28;19924;-74
2023/12/29 02:46:41;;;;;;;;;;;7.60;99.90;;;;;;5087821;28;19924;-74
2023/12/29 02:49:12;;;;;;;;;;;7.60;99.90;;;;;;5078416;28;20368;-74
2023/12/29 02:51:39;;;;;;;;;;;7.60;99.90;;;;;;5082028;28;20352;-75
2023/12/29 02:54:07;;;;;;;;;;;7.70;99.90;;;;;;5084698;28;20455;-74
2023/12/29 02:56:33;;;;;;;;;;;7.70;99.90;;;;;;5087004;28;19969;-74
2023/12/29 02:59:00;;;;;;;;;;;7.70;99.90;;;;;;5086674;28;19974;-74
2023/12/29 03:01:28;;;;;;;;;;;7.70;99.90;;;;;;5085125;28;19969;-74
2023/12/29 03:03:55;;;;;;;;;;;7.60;99.90;;;;;;5083180;28;19930;-74
2023/12/29 03:06:21;;;;;;;;;;;7.60;99.90;;;;;;5084324;28;19968;-76
2023/12/29 03:08:48;;;;;;;;;;;7.60;99.90;;;;;;5082672;28;19927;-74
2023/12/29 03:11:14;;;;;;;;;;;7.60;99.90;;;;;;5090916;28;19924;-74
2023/12/29 03:13:41;;;;;;;;;;;7.50;99.90;;;;;;5088578;28;19928;-74
2023/12/29 03:16:07;;;;;;;;;;;7.50;99.90;;;;;;5088780;28;19928;-75
2023/12/29 03:18:38;;;;;;;;;;;7.40;99.90;;;;;;5087703;28;20198;-74
2023/12/29 03:21:05;;;;;;;;;;;7.40;99.90;;;;;;5085932;28;19932;-75
2023/12/29 03:23:32;;;;;;;;;;;7.50;99.90;;;;;;5095252;28;19925;-74
2023/12/29 03:25:58;;;;;;;;;;;7.50;99.90;;;;;;5091708;28;20028;-74
2023/12/29 03:28:25;;;;;;;;;;;7.50;99.90;;;;;;5083017;28;19924;-75
2023/12/29 03:30:51;;;;;;;;;;;7.60;99.90;;;;;;5085272;28;20382;-75
2023/12/29 03:33:18;;;;;;;;;;;7.60;99.90;;;;;;5089026;28;20645;-75
2023/12/29 03:35:45;;;;;;;;;;;7.60;99.90;;;;;;5088509;28;19925;-74
2023/12/29 03:38:12;;;;;;;;;;;7.60;99.90;;;;;;5086740;28;19985;-75
2023/12/29 03:40:38;;;;;;;;;;;7.60;99.90;;;;;;5090747;28;19978;-74
2023/12/29 03:43:05;;;;;;;;;;;7.70;99.90;;;;;;5086907;28;20386;-74
2023/12/29 03:45:31;;;;;;;;;;;7.60;99.90;;;;;;5090123;28;19924;-74
2023/12/29 03:47:58;;;;;;;;;;;7.60;99.90;;;;;;5085179;28;19950;-75
2023/12/29 03:50:24;;;;;;;;;;;7.60;99.90;;;;;;5086066;28;20355;-74
2023/12/29 03:52:52;;;;;;;;;;;7.60;99.90;;;;;;5088090;28;19970;-74
2023/12/29 03:55:19;;;;;;;;;;;7.50;99.90;;;;;;5092109;28;20378;-74
2023/12/29 03:57:45;;;;;;;;;;;7.50;99.90;;;;;;5085817;28;20008;-74
2023/12/29 04:00:13;;;;;;;;;;;7.60;99.90;;;;;;5079690;28;19928;-74
2023/12/29 04:02:39;;;;;;;;;;;7.60;99.90;;;;;;5082503;28;19929;-74
2023/12/29 04:05:07;;;;;;;;;;;7.60;99.90;;;;;;5085651;28;19924;-75
2023/12/29 04:07:34;;;;;;;;;;;7.60;99.90;;;;;;5089792;28;19928;-74
2023/12/29 04:10:02;;;;;;;;;;;7.70;99.90;;;;;;5093958;28;19924;-75
2023/12/29 04:12:28;;;;;;;;;;;7.70;99.90;;;;;;5079298;28;20306;-74
2023/12/29 04:14:55;;;;;;;;;;;7.70;99.90;;;;;;5083351;28;19931;-74
2023/12/29 04:17:21;;;;;;;;;;;7.70;99.90;;;;;;5085026;28;19932;-74
2023/12/29 04:19:48;;;;;;;;;;;7.80;99.90;;;;;;5090003;28;19970;-74
2023/12/29 04:22:14;;;;;;;;;;;7.80;99.90;;;;;;5093105;28;19970;-75
2023/12/29 04:24:41;;;;;;;;;;;7.80;99.90;;;;;;5077570;28;20391;-74
2023/12/29 04:27:08;;;;;;;;;;;7.80;99.90;;;;;;5086188;28;19932;-74
2023/12/29 04:29:35;;;;;;;;;;;7.80;99.90;;;;;;5084542;28;19955;-74
2023/12/29 04:32:01;;;;;;;;;;;7.90;99.90;;;;;;5090681;28;19925;-74
2023/12/29 04:34:28;;;;;;;;;;;7.90;99.90;;;;;;5089765;28;19924;-74
2023/12/29 04:36:54;;;;;;;;;;;7.90;99.90;;;;;;5090616;28;19994;-74
2023/12/29 04:39:21;;;;;;;;;;;8.00;99.90;;;;;;5086608;28;19977;-75
2023/12/29 04:41:47;;;;;;;;;;;8.00;99.90;;;;;;5087018;28;19924;-75
2023/12/29 04:44:15;;;;;;;;;;;8.00;99.90;;;;;;5085049;28;19993;-74
2023/12/29 04:46:42;;;;;;;;;;;8.10;99.90;;;;;;5090424;28;19924;-74
2023/12/29 04:49:09;;;;;;;;;;;8.00;99.90;;;;;;5088350;28;20431;-74
2023/12/29 04:51:34;;;;;;;;;;;8.00;99.90;;;;;;5079146;28;20387;-74
2023/12/29 04:54:01;;;;;;;;;;;8.10;99.90;;;;;;5082810;28;19927;-74
2023/12/29 04:56:27;;;;;;;;;;;8.10;99.90;;;;;;5086831;28;19970;-74
2023/12/29 04:58:54;;;;;;;;;;;8.10;99.90;;;;;;5088138;28;20574;-74
2023/12/29 05:01:21;;;;;;;;;;;8.10;99.90;;;;;;5091728;28;19931;-75
2023/12/29 05:03:48;;;;;;;;;;;8.00;99.90;;;;;;5088352;28;19924;-74
2023/12/29 05:06:14;;;;;;;;;;;8.10;99.90;;;;;;5077539;28;19924;-75
2023/12/29 05:08:41;;;;;;;;;;;8.00;99.90;;;;;;5081993;28;19928;-74
2023/12/29 05:11:08;;;;;;;;;;;8.10;99.90;;;;;;5087246;28;19928;-74
2023/12/29 05:13:34;;;;;;;;;;;8.10;99.90;;;;;;5089925;28;19924;-74
2023/12/29 05:16:03;;;;;;;;;;;8.10;99.90;;;;;;5091085;28;19932;-73
2023/12/29 05:18:31;;;;;;;;;;;8.10;99.90;;;;;;5091332;28;19935;-74
2023/12/29 05:20:57;;;;;;;;;;;8.20;99.90;;;;;;5085583;28;19924;-74
2023/12/29 05:23:24;;;;;;;;;;;8.30;99.90;;;;;;5084576;28;19924;-74
2023/12/29 05:25:51;;;;;;;;;;;8.20;99.90;;;;;;5087139;28;19977;-74
2023/12/29 05:28:18;;;;;;;;;;;8.30;99.90;;;;;;5091011;28;19931;-74
2023/12/29 05:30:45;;;;;;;;;;;8.40;99.90;;;;;;5090049;28;19924;-74
2023/12/29 05:33:11;;;;;;;;;;;8.40;99.90;;;;;;5088739;28;19928;-74
2023/12/29 05:35:39;;;;;;;;;;;8.40;99.90;;;;;;5082089;28;19924;-74
2023/12/29 05:38:05;;;;;;;;;;;8.40;99.90;;;;;;5087592;28;20340;-74
2023/12/29 05:40:32;;;;;;;;;;;8.40;99.90;;;;;;5088831;28;19950;-74
2023/12/29 05:42:58;;;;;;;;;;;8.40;99.90;;;;;;5089695;28;19924;-74
2023/12/29 05:45:25;;;;;;;;;;;8.40;99.90;;;;;;5078348;28;19950;-75
2023/12/29 05:47:51;;;;;;;;;;;8.40;99.90;;;;;;5086713;28;19924;-74
2023/12/29 05:50:18;;;;;;;;;;;8.40;99.90;;;;;;5084313;28;19928;-74
2023/12/29 05:52:49;;;;;;;;;;;8.40;99.90;;;;;;5089498;28;19928;-72
2023/12/29 05:55:16;;;;;;;;;;;8.30;99.90;;;;;;5089129;28;20011;-74
2023/12/29 05:57:42;;;;;;;;;;;8.30;99.90;;;;;;5091678;28;19934;-74
2023/12/29 06:00:14;;;;;;;;;;;8.30;99.90;;;;;;5079824;28;20443;-74
2023/12/29 06:02:40;;;;;;;;;;;8.40;99.90;;;;;;5083166;28;19935;-74
2023/12/29 06:05:07;;;;;;;;;;;8.40;99.90;;;;;;5087502;28;19924;-74
2023/12/29 06:07:34;;;;;;;;;;;8.40;99.90;;;;;;5089482;28;19928;-74
2023/12/29 06:10:02;;;;;;;;;;;8.40;99.90;;;;;;5091692;28;19928;-74
2023/12/29 06:12:28;;;;;;;;;;;8.40;99.90;;;;;;5088921;28;19978;-75
2023/12/29 06:14:55;;;;;;;;;;;8.40;99.90;;;;;;5085111;28;19924;-74
2023/12/29 06:17:21;;;;;;;;;;;8.40;99.90;;;;;;5087267;28;20382;-74
2023/12/29 06:19:48;;;;;;;;;;;8.40;99.90;;;;;;5087670;28;19924;-74
2023/12/29 06:22:14;;;;;;;;;;;8.40;99.90;;;;;;5090745;28;20434;-74
2023/12/29 06:24:41;;;;;;;;;;;8.40;99.90;;;;;;5091378;28;19928;-74
2023/12/29 06:27:09;;;;;;;;;;;8.40;99.90;;;;;;5084526;28;20455;-73
2023/12/29 06:29:36;;;;;;;;;;;8.40;99.90;;;;;;5089255;28;20393;-73
2023/12/29 06:32:03;;;;;;;;;;;8.40;99.90;;;;;;5087907;28;19924;-73
2023/12/29 06:34:30;;;;;;;;;;;8.40;99.90;;;;;;5087275;28;20318;-74
2023/12/29 06:36:56;;;;;;;;;;;8.40;99.90;;;;;;5090552;28;19970;-73
2023/12/29 06:39:23;;;;;;;;;;;8.50;99.90;;;;;;5091032;28;19977;-74
2023/12/29 06:41:50;;;;;;;;;;;8.50;99.90;;;;;;5083608;28;20382;-73
2023/12/29 06:44:17;;;;;;;;;;;8.50;99.90;;;;;;5084592;28;19931;-74
2023/12/29 06:46:44;;;;;;;;;;;8.40;99.90;;;;;;5086971;28;19924;-74
2023/12/29 06:49:11;;;;;;;;;;;8.40;99.90;;;;;;5083484;28;19978;-74
2023/12/29 06:51:38;;;;;;;;;;;8.30;99.90;;;;;;5091461;28;19967;-74
2023/12/29 06:54:05;;;;;;;;;;;8.30;99.90;;;;;;5077512;28;20404;-74
2023/12/29 06:56:31;;;;;;;;;;;8.20;99.90;;;;;;5084484;28;19974;-75
2023/12/29 06:58:58;;;;;;;;;;;8.10;99.90;;;;;;5087919;28;19924;-74
2023/12/29 07:01:26;;;;;;;;;;;8.10;99.90;;;;;;5087757;28;19924;-74
2023/12/29 07:03:52;;;;;;;;;;;8.10;99.90;;;;;;5089222;28;19979;-74
2023/12/29 07:06:19;;;;;;;;;;;8.20;99.90;;;;;;5086622;28;19978;-73
2023/12/29 07:08:46;;;;;;;;;;;8.30;99.90;;;;;;5084287;28;19985;-75
2023/12/29 07:11:13;;;;;;;;;;;8.30;99.90;;;;;;5085878;28;19928;-74
2023/12/29 07:13:39;;;;;;;;;;;8.30;99.90;;;;;;5086443;28;20379;-73
2023/12/29 07:16:06;;;;;;;;;;;8.30;99.90;;;;;;5085494;28;19982;-75
2023/12/29 07:18:34;;;;;;;;;;;8.30;99.90;;;;;;5087365;28;19928;-74
2023/12/29 07:21:00;;;;;;;;;;;8.40;99.90;;;;;;5084506;28;19924;-75
2023/12/29 07:23:27;;;;;;;;;;;8.40;99.90;;;;;;5080671;28;19929;-74
2023/12/29 07:25:53;;;;;;;;;;;8.40;99.90;;;;;;5089769;28;19924;-74
2023/12/29 07:28:20;;;;;;;;;;;8.40;99.90;;;;;;5083377;28;19925;-74
2023/12/29 07:30:46;;;;;;;;;;;8.40;99.90;;;;;;5084067;28;19932;-74
2023/12/29 07:33:13;;;;;;;;;;;8.40;99.90;;;;;;5086275;28;19970;-74
2023/12/29 07:35:41;;;;;;;;;;;8.40;99.90;;;;;;5081014;28;19924;-74
2023/12/29 07:38:07;;;;;;;;;;;8.40;99.90;;;;;;5082233;28;19928;-74
2023/12/29 07:40:33;;;;;;;;;;;8.30;99.90;;;;;;5088159;28;20449;-74
2023/12/29 07:43:00;;;;;;;;;;;8.30;99.90;;;;;;5088212;28;19969;-74
2023/12/29 07:45:26;;;;;;;;;;;8.30;99.90;;;;;;5083473;28;19978;-74
2023/12/29 07:47:53;;;;;;;;;;;8.30;99.90;;;;;;5081174;28;20367;-73
2023/12/29 07:50:20;;;;;;;;;;;8.30;99.90;;;;;;5084469;28;19924;-74
2023/12/29 07:52:48;;;;;;;;;;;8.30;99.90;;;;;;5088450;28;20271;-74
2023/12/29 07:55:16;;;;;;;;;;;8.30;99.90;;;;;;5087877;28;19924;-74
2023/12/29 07:57:42;;;;;;;;;;;8.30;99.90;;;;;;5089473;28;20409;-76
2023/12/29 08:00:10;;;;;;;;;;;8.30;99.90;;;;;;5078346;28;20470;-74
2023/12/29 08:02:37;;;;;;;;;;;8.30;99.90;;;;;;5080914;28;19932;-74
2023/12/29 08:05:04;;;;;;;;;;;8.30;99.90;;;;;;5084436;28;20366;-74
2023/12/29 08:07:30;;;;;;;;;;;8.30;99.90;;;;;;5084887;28;19928;-74
2023/12/29 08:09:58;;;;;;;;;;;8.40;99.90;;;;;;5094033;28;19975;-74
2023/12/29 08:12:24;;;;;;;;;;;8.30;99.90;;;;;;5089584;28;19989;-74
2023/12/29 08:14:51;;;;;;;;;;;8.30;99.90;;;;;;5084081;28;20429;-74
2023/12/29 08:17:17;;;;;;;;;;;8.40;99.90;;;;;;5087753;28;19928;-74
2023/12/29 08:19:44;;;;;;;;;;;8.30;99.90;;;;;;5091480;28;19928;-74
2023/12/29 08:22:10;;;;;;;;;;;8.40;99.90;;;;;;5090542;28;19924;-74
2023/12/29 08:24:37;;;;;;;;;;;8.40;99.90;;;;;;5088199;28;20340;-74
2023/12/29 08:27:05;;;;;;;;;;;8.40;99.90;;;;;;5087235;28;19928;-74
2023/12/29 08:29:31;;;;;;;;;;;8.40;99.90;;;;;;5088801;28;19970;-74
2023/12/29 08:31:58;;;;;;;;;;;8.50;99.90;;;;;;5086961;28;19986;-74
2023/12/29 08:34:24;;;;;;;;;;;8.50;99.90;;;;;;5089650;28;19993;-75
2023/12/29 08:36:51;;;;;;;;;;;8.50;99.90;;;;;;5089513;28;19928;-74
2023/12/29 08:39:18;;;;;;;;;;;8.50;99.90;;;;;;5089782;28;20394;-73
2023/12/29 08:41:45;;;;;;;;;;;8.60;99.90;;;;;;5089073;28;19936;-74
2023/12/29 08:44:14;;;;;;;;;;;8.60;99.90;;;;;;5089416;28;19977;-74
2023/12/29 08:46:41;;;;;;;;;;;8.60;99.90;;;;;;5089314;28;19936;-73
2023/12/29 08:49:07;;;;;;;;;;;8.60;99.90;;;;;;5088773;28;19932;-74
2023/12/29 08:51:34;;;;;;;;;;;8.70;99.90;;;;;;5088391;28;19932;-74
2023/12/29 08:54:00;;;;;;;;;;;8.70;99.90;;;;;;5086968;28;19928;-74
2023/12/29 08:56:28;;;;;;;;;;;8.70;99.90;;;;;;5089623;28;19924;-74
2023/12/29 08:58:54;;;;;;;;;;;8.70;99.90;;;;;;5088426;28;19932;-73
2023/12/29 09:01:22;;;;;;;;;;;8.70;99.90;;;;;;5089708;28;20348;-74
2023/12/29 09:03:49;;;;;;;;;;;8.80;99.90;;;;;;5087458;28;19986;-74
2023/12/29 09:06:15;;;;;;;;;;;8.80;99.90;;;;;;5089158;28;20046;-74
2023/12/29 09:08:42;;;;;;;;;;;8.80;99.90;;;;;;5087795;28;19973;-74
2023/12/29 09:11:08;;;;;;;;;;;8.80;99.90;;;;;;5089059;28;19931;-74
2023/12/29 09:13:35;;;;;;;;;;;8.90;99.90;;;;;;5086486;28;19932;-73
2023/12/29 09:16:01;;;;;;;;;;;8.90;99.90;;;;;;5088395;28;19969;-73
2023/12/29 09:18:29;;;;;;;;;;;8.90;99.90;;;;;;5089076;28;19950;-74
2023/12/29 09:20:56;;;;;;;;;;;9.00;99.90;;;;;;5088252;28;20301;-74
2023/12/29 09:23:22;;;;;;;;;;;9.10;99.90;;;;;;5087813;28;19932;-73
2023/12/29 09:25:49;;;;;;;;;;;9.10;99.90;;;;;;5089212;28;20038;-73
2023/12/29 09:28:15;;;;;;;;;;;9.20;99.90;;;;;;5088086;28;19924;-74
2023/12/29 09:30:42;;;;;;;;;;;9.30;99.90;;;;;;5088904;28;20386;-73
2023/12/29 09:33:12;;;;;;;;;;;9.40;99.90;;;;;;5088385;28;19941;-72
2023/12/29 09:35:40;;;;;;;;;;;9.50;99.90;;;;;;5088333;28;19938;-73
2023/12/29 09:38:07;;;;;;;;;;;9.50;99.90;;;;;;5087404;28;19969;-73
2023/12/29 09:40:33;;;;;;;;;;;9.60;99.90;;;;;;5088134;28;19924;-73
2023/12/29 09:43:01;;;;;;;;;;;9.60;99.90;;;;;;5088207;28;20019;-73
2023/12/29 09:45:29;;;;;;;;;;;9.70;99.90;;;;;;5087674;28;19989;-73
2023/12/29 09:47:55;;;;;;;;;;;9.70;99.90;;;;;;5088139;28;19924;-74
2023/12/29 09:50:22;;;;;;;;;;;9.70;99.90;;;;;;5086949;28;19932;-73
2023/12/29 09:52:50;;;;;;;;;;;9.80;99.90;;;;;;5087659;28;19977;-73
2023/12/29 09:55:17;;;;;;;;;;;9.80;99.90;;;;;;5087474;28;19959;-75
2023/12/29 09:57:44;;;;;;;;;;;9.80;99.90;;;;;;5087492;28;20451;-73
2023/12/29 10:00:12;;;;;;;;;;;9.80;99.90;;;;;;5087050;28;19951;-74
2023/12/29 10:02:39;;;;;;;;;;;9.80;99.90;;;;;;5087735;28;19985;-74
2023/12/29 10:05:06;;;;;;;;;;;9.80;99.90;;;;;;5088692;28;19957;-72
2023/12/29 10:07:36;;;;;;;;;;;9.80;99.90;;;;;;5088831;28;19939;-71
2023/12/29 10:10:04;;;;;;;;;;;9.80;99.90;;;;;;5087846;28;19932;-71
2023/12/29 10:12:31;;;;;;;;;;;9.80;99.90;;;;;;5088157;28;19932;-71
2023/12/29 10:15:06;;;;;;;;;;;9.80;99.90;;;;;;5086596;28;19977;-72
2023/12/29 10:17:39;;;;;;;;;;;9.80;99.90;;;;;;5087091;28;19932;-72
2023/12/29 10:20:10;;;;;;;;;;;9.80;99.90;;;;;;5086334;28;19936;-72
2023/12/29 10:22:43;;;;;;;;;;;9.80;99.90;;;;;;5086863;28;20429;-71
2023/12/29 10:25:10;;;;;;;;;;;9.80;99.90;;;;;;5087055;28;20370;-73
2023/12/29 10:27:37;;;;;;;;;;;9.80;99.90;;;;;;5087275;28;20018;-71
2023/12/29 10:30:04;;;;;;;;;;;9.70;99.90;;;;;;5086122;28;19983;-73
2023/12/29 10:32:30;;;;;;;;;;;9.80;99.90;;;;;;5087035;28;19928;-72
2023/12/29 10:35:08;;;;;;;;;;;9.80;99.90;;;;;;5087581;28;19957;-72
2023/12/29 10:37:35;;;;;;;;;;;9.80;99.90;;;;;;5086969;28;19939;-72
2023/12/29 10:40:01;;;;;;;;;;;9.70;99.90;;;;;;5085454;28;19928;-71
2023/12/29 10:42:29;;;;;;;;;;;9.70;99.90;;;;;;5086780;28;20002;-72
2023/12/29 10:45:05;;;;;;;;;;;9.70;99.90;;;;;;5086625;28;19925;-71
2023/12/29 10:47:31;;;;;;;;;;;9.70;99.90;;;;;;5077453;28;19924;-73
2023/12/29 10:49:59;;;;;;;;;;;9.80;99.90;;;;;;5085461;28;20044;-72
2023/12/29 10:52:26;;;;;;;;;;;9.80;99.90;;;;;;5085668;28;19924;-72
2023/12/29 10:55:04;;;;;;;;;;;9.80;99.90;;;;;;5086260;28;20451;-72
2023/12/29 10:57:32;;;;;;;;;;;9.80;99.90;;;;;;5086603;28;19956;-73
2023/12/29 10:59:59;;;;;;;;;;;9.80;99.90;;;;;;5083772;28;19932;-75
2023/12/29 11:02:27;;;;;;;;;;;9.80;99.90;;;;;;5081551;28;20441;-74
2023/12/29 11:05:01;;;;;;;;;;;9.80;99.90;;;;;;5084362;28;19932;-73
2023/12/29 11:07:32;;;;;;;;;;;9.90;99.90;;;;;;5084596;28;19985;-72
2023/12/29 11:10:00;;;;;;;;;;;9.90;99.90;;;;;;5084673;28;19932;-73
2023/12/29 11:12:27;;;;;;;;;;;9.90;99.90;;;;;;5085228;28;19928;-74
2023/12/29 11:14:55;;;;;;;;;;;9.90;99.90;;;;;;5084972;28;19924;-74
2023/12/29 11:17:21;;;;;;;;;;;9.90;99.90;;;;;;5083132;28;19985;-74
2023/12/29 11:19:48;;;;;;;;;;;9.90;99.90;;;;;;5084906;28;19924;-75
2023/12/29 11:22:15;;;;;;;;;;;10.00;99.90;;;;;;5084428;28;20011;-74
2023/12/29 11:24:41;;;;;;;;;;;10.00;99.90;;;;;;5083461;28;19978;-74
2023/12/29 11:27:08;;;;;;;;;;;10.00;99.90;;;;;;5084124;28;20794;-73
2023/12/29 11:29:35;;;;;;;;;;;10.10;99.90;;;;;;5085069;28;20378;-74
2023/12/29 11:32:04;;;;;;;;;;;10.20;99.90;;;;;;5084533;28;19936;-75
2023/12/29 11:34:34;;;;;;;;;;;10.20;99.90;;;;;;5086175;28;19932;-74
2023/12/29 11:37:13;;;;;;;;;;;10.30;99.90;;;;;;5085684;28;19985;-74
2023/12/29 11:39:43;;;;;;;;;;;10.30;99.90;;;;;;5085135;28;19976;-74
2023/12/29 11:42:15;;;;;;;;;;;10.30;99.90;;;;;;5086924;28;19924;-74
2023/12/29 11:44:41;;;;;;;;;;;10.30;99.90;;;;;;5087975;28;20015;-74
2023/12/29 11:47:29;;;;;;;;;;;10.30;99.90;;;;;;5086144;28;19928;-73
2023/12/29 11:50:00;;;;;;;;;;;10.40;99.90;;;;;;5088685;28;19963;-73
2023/12/29 11:52:33;;;;;;;;;;;10.50;99.90;;;;;;5088780;28;20321;-74
2023/12/29 11:55:07;;;;;;;;;;;10.60;99.90;;;;;;5089338;28;19928;-73
2023/12/29 11:57:36;;;;;;;;;;;10.70;99.90;;;;;;5089120;28;19936;-72
2023/12/29 12:00:02;;;;;;;;;;;10.70;99.90;;;;;;5088923;28;19931;-73
2023/12/29 12:02:30;;;;;;;;;;;10.70;99.90;;;;;;5089313;28;20011;-73
2023/12/29 12:04:57;;;;;;;;;;;10.70;99.90;;;;;;5090212;28;20447;-73
2023/12/29 12:07:38;;;;;;;;;;;10.80;99.90;;;;;;5089280;28;19928;-73
2023/12/29 12:10:19;;;;;;;;;;;10.80;99.90;;;;;;5088972;28;19936;-73
2023/12/29 12:12:46;;;;;;;;;;;10.80;99.90;;;;;;5088592;28;19932;-74
2023/12/29 12:15:31;;;;;;;;;;;10.90;99.90;;;;;;5088457;28;19928;-73
2023/12/29 12:18:00;;;;;;;;;;;10.90;99.90;;;;;;5088978;28;20002;-72
2023/12/29 12:20:28;;;;;;;;;;;10.90;99.90;;;;;;5088769;28;19939;-73
2023/12/29 12:22:57;;;;;;;;;;;10.90;99.90;;;;;;5087744;28;19932;-73
2023/12/29 12:25:26;;;;;;;;;;;10.90;99.90;;;;;;5088588;28;19986;-73
2023/12/29 12:27:52;;;;;;;;;;;10.90;99.90;;;;;;5089586;28;20371;-72
2023/12/29 12:30:19;;;;;;;;;;;10.80;99.90;;;;;;5088066;28;19924;-72
2023/12/29 12:32:46;;;;;;;;;;;10.80;99.90;;;;;;5089292;28;20004;-73
2023/12/29 12:35:17;;;;;;;;;;;10.80;99.90;;;;;;5089057;28;19985;-73
2023/12/29 12:37:43;;;;;;;;;;;10.80;99.90;;;;;;5088701;28;20290;-73
2023/12/29 12:40:12;;;;;;;;;;;10.80;99.90;;;;;;5087743;28;19939;-73
2023/12/29 12:42:40;;;;;;;;;;;10.80;99.90;;;;;;5088267;28;19985;-73
2023/12/29 12:45:11;;;;;;;;;;;10.80;99.90;;;;;;5087861;28;19965;-73
2023/12/29 12:47:38;;;;;;;;;;;10.80;99.90;;;;;;5088594;28;19932;-74
2023/12/29 12:50:05;;;;;;;;;;;10.80;99.90;;;;;;5087900;28;19932;-73
2023/12/29 12:52:34;;;;;;;;;;;10.80;99.90;;;;;;5089737;28;19938;-74
2023/12/29 12:55:00;;;;;;;;;;;10.70;99.90;;;;;;5088459;28;19924;-74
2023/12/29 12:57:27;;;;;;;;;;;10.70;99.90;;;;;;5085640;28;19978;-74
2023/12/29 12:59:54;;;;;;;;;;;10.80;99.90;;;;;;5087725;28;19932;-71
2023/12/29 13:02:21;;;;;;;;;;;10.70;99.90;;;;;;5088452;28;20066;-72
2023/12/29 13:04:50;;;;;;;;;;;10.70;99.90;;;;;;5088713;28;19970;-74
2023/12/29 13:07:17;;;;;;;;;;;10.70;99.90;;;;;;5088044;28;20306;-74
2023/12/29 13:09:45;;;;;;;;;;;10.70;99.90;;;;;;5088735;28;19985;-75
2023/12/29 13:12:12;;;;;;;;;;;10.70;99.90;;;;;;5089344;28;19928;-71
2023/12/29 13:14:39;;;;;;;;;;;10.60;99.90;;;;;;5087940;28;19932;-72
2023/12/29 13:17:06;;;;;;;;;;;10.60;99.90;;;;;;5087414;28;19928;-74
2023/12/29 13:19:34;;;;;;;;;;;10.60;99.90;;;;;;5087945;28;19924;-73
2023/12/29 13:22:00;;;;;;;;;;;10.60;99.90;;;;;;5089259;28;20333;-73
2023/12/29 13:24:27;;;;;;;;;;;10.60;99.90;;;;;;5087519;28;20289;-73
2023/12/29 13:26:58;;;;;;;;;;;10.60;99.90;;;;;;5088731;28;19932;-74
2023/12/29 13:29:25;;;;;;;;;;;10.60;99.90;;;;;;5088684;28;19935;-73
2023/12/29 13:31:53;;;;;;;;;;;10.50;99.90;;;;;;5088137;28;19932;-73
2023/12/29 13:34:22;;;;;;;;;;;10.60;99.90;;;;;;5088126;28;19993;-73
2023/12/29 13:36:50;;;;;;;;;;;10.60;99.90;;;;;;5087967;28;20360;-73
2023/12/29 13:39:25;;;;;;;;;;;10.60;99.90;;;;;;5087172;28;19932;-74
2023/12/29 13:41:52;;;;;;;;;;;10.60;99.90;;;;;;5087887;28;19965;-73
2023/12/29 13:44:21;;;;;;;;;;;10.50;99.90;;;;;;5088124;28;19940;-73
2023/12/29 13:46:48;;;;;;;;;;;10.60;99.90;;;;;;5088229;28;19956;-73
2023/12/29 13:49:15;;;;;;;;;;;10.60;99.90;;;;;;5087706;28;20377;-73
2023/12/29 13:51:42;;;;;;;;;;;10.60;99.90;;;;;;5087033;28;19930;-73
2023/12/29 13:54:09;;;;;;;;;;;10.60;99.90;;;;;;5087871;28;20355;-73
2023/12/29 13:56:36;;;;;;;;;;;10.60;99.90;;;;;;5087239;28;20398;-73
2023/12/29 13:59:06;;;;;;;;;;;10.60;99.90;;;;;;5086842;28;19932;-73
2023/12/29 14:01:38;;;;;;;;;;;10.60;99.90;;;;;;5086051;28;20013;-72
2023/12/29 14:04:07;;;;;;;;;;;10.60;99.90;;;;;;5085839;28;19959;-72
2023/12/29 14:06:38;;;;;;;;;;;10.60;99.90;;;;;;5086962;28;19932;-73
2023/12/29 14:09:04;;;;;;;;;;;10.60;99.90;;;;;;5087733;28;19932;-73
2023/12/29 14:11:32;;;;;;;;;;;10.60;99.90;;;;;;5087776;28;19932;-73
2023/12/29 14:13:59;;;;;;;;;;;10.60;99.90;;;;;;5087764;28;19927;-72
2023/12/29 14:16:25;;;;;;;;;;;10.50;99.90;;;;;;5087130;28;19932;-72
2023/12/29 14:18:57;;;;;;;;;;;10.50;99.90;;;;;;5087099;28;19924;-73
2023/12/29 14:21:25;;;;;;;;;;;10.50;99.90;;;;;;5086594;28;19932;-73
2023/12/29 14:24:02;;;;;;;;;;;10.40;99.90;;;;;;5086492;28;19932;-73
2023/12/29 14:26:29;;;;;;;;;;;10.40;99.90;;;;;;5087236;28;19928;-73
2023/12/29 14:29:02;;;;;;;;;;;10.30;99.90;;;;;;5087185;28;20375;-73